createdAt,value
2018-12-24T00:00:44.576Z,8.40
2018-12-24T00:03:13.627Z,8.57
2018-12-24T00:05:42.646Z,8.30
2018-12-24T00:08:11.581Z,8.67
2018-12-24T00:10:40.688Z,9.80
2018-12-24T00:13:09.668Z,10.80
2018-12-24T00:15:38.597Z,11.27
2018-12-24T00:18:07.474Z,9.83
2018-12-24T00:20:36.464Z,8.50
2018-12-24T00:23:05.401Z,9.23
2018-12-24T00:25:34.284Z,10.03
2018-12-24T00:28:03.376Z,9.17
2018-12-24T00:30:32.359Z,9.27
2018-12-24T00:33:01.318Z,10.00
2018-12-24T00:35:30.238Z,10.03
2018-12-24T00:37:59.189Z,8.40
2018-12-24T00:40:28.083Z,8.67
2018-12-24T00:42:57.350Z,8.97
2018-12-24T00:45:26.579Z,9.17
2018-12-24T00:47:55.566Z,8.87
2018-12-24T00:50:24.868Z,8.20
2018-12-24T00:52:53.880Z,8.60
2018-12-24T00:55:22.902Z,8.80
2018-12-24T00:57:51.838Z,9.20
2018-12-24T01:00:20.852Z,8.20
2018-12-24T01:02:50.054Z,6.50
2018-12-24T01:05:18.986Z,8.07
2018-12-24T01:07:48.228Z,7.03
2018-12-24T01:10:17.511Z,6.07
2018-12-24T01:12:46.478Z,4.87
2018-12-24T01:15:15.429Z,5.10
2018-12-24T01:17:44.287Z,4.53
2018-12-24T01:20:13.301Z,5.20
2018-12-24T01:22:42.475Z,4.17
2018-12-24T01:25:11.726Z,4.20
2018-12-24T01:27:40.685Z,3.57
2018-12-24T01:30:09.731Z,2.77
2018-12-24T01:32:38.675Z,3.23
2018-12-24T01:35:07.597Z,4.20
2018-12-24T01:37:36.532Z,5.13
2018-12-24T01:40:05.710Z,5.93
2018-12-24T01:42:34.786Z,5.67
2018-12-24T01:45:05.712Z,6.33
2018-12-24T01:47:34.656Z,7.17
2018-12-24T01:50:03.829Z,6.27
2018-12-24T01:52:33.044Z,5.90
2018-12-24T01:55:02.428Z,7.10
2018-12-24T01:57:31.387Z,6.47
2018-12-24T02:00:00.697Z,6.50
2018-12-24T02:02:29.931Z,6.50
2018-12-24T02:04:58.875Z,5.93
2018-12-24T02:07:27.802Z,5.53
2018-12-24T02:09:56.927Z,4.87
2018-12-24T02:12:25.966Z,4.30
2018-12-24T02:14:54.909Z,4.40
2018-12-24T02:17:23.817Z,4.47
2018-12-24T02:19:52.755Z,4.43
2018-12-24T02:22:21.669Z,5.13
2018-12-24T02:24:50.606Z,5.60
2018-12-24T02:27:19.489Z,5.93
2018-12-24T02:29:48.602Z,5.50
2018-12-24T02:32:18.581Z,5.63
2018-12-24T02:34:47.487Z,5.60
2018-12-24T02:37:16.420Z,6.37
2018-12-24T02:39:45.432Z,5.30
2018-12-24T02:42:14.352Z,4.63
2018-12-24T02:44:43.285Z,4.37
2018-12-24T02:47:12.222Z,4.87
2018-12-24T02:49:41.433Z,4.70
2018-12-24T02:52:10.614Z,4.73
2018-12-24T02:54:39.835Z,4.47
2018-12-24T02:57:08.769Z,4.63
2018-12-24T02:59:37.707Z,3.97
2018-12-24T03:02:06.696Z,4.10
2018-12-24T03:04:35.618Z,4.10
2018-12-24T03:07:04.552Z,3.17
2018-12-24T03:09:33.752Z,4.07
2018-12-24T03:12:03.136Z,3.77
2018-12-24T03:14:32.444Z,3.53
2018-12-24T03:17:01.350Z,4.47
2018-12-24T03:19:30.719Z,4.37
2018-12-24T03:21:59.640Z,5.50
2018-12-24T03:24:28.582Z,4.43
2018-12-24T03:26:57.759Z,5.20
2018-12-24T03:29:26.974Z,5.70
2018-12-24T03:31:55.921Z,6.50
2018-12-24T03:34:25.207Z,6.33
2018-12-24T03:36:54.235Z,8.50
2018-12-24T03:39:23.215Z,9.80
2018-12-24T03:41:52.139Z,11.83
2018-12-24T03:44:21.097Z,11.37
2018-12-24T03:46:50.027Z,13.93
2018-12-24T03:49:19.254Z,13.57
2018-12-24T03:51:48.491Z,13.57
2018-12-24T03:54:17.781Z,14.10
2018-12-24T03:56:46.776Z,13.57
2018-12-24T03:59:15.844Z,13.57
2018-12-24T04:01:44.999Z,14.50
2018-12-24T04:04:14.203Z,14.77
2018-12-24T04:06:43.126Z,14.00
2018-12-24T04:09:12.176Z,14.37
2018-12-24T04:11:41.471Z,13.63
2018-12-24T04:14:10.462Z,13.50
2018-12-24T04:16:39.399Z,13.27
2018-12-24T04:19:08.641Z,14.43
2018-12-24T04:21:37.874Z,13.70
2018-12-24T04:24:06.853Z,13.97
2018-12-24T04:26:35.763Z,12.93
2018-12-24T04:29:04.909Z,13.03
2018-12-24T04:31:33.870Z,11.73
2018-12-24T04:34:02.836Z,10.40
2018-12-24T04:36:32.054Z,9.00
2018-12-24T04:39:01.252Z,9.33
2018-12-24T04:41:30.273Z,9.20
2018-12-24T04:43:59.379Z,9.17
2018-12-24T04:46:28.604Z,8.27
2018-12-24T04:49:00.878Z,8.27
2018-12-24T04:51:29.855Z,7.97
2018-12-24T04:53:58.798Z,7.00
2018-12-24T04:56:27.761Z,6.40
2018-12-24T04:58:56.691Z,5.37
2018-12-24T05:01:26.010Z,5.80
2018-12-24T05:03:54.930Z,5.03
2018-12-24T05:06:23.873Z,4.07
2018-12-24T05:08:52.834Z,3.10
2018-12-24T05:11:22.147Z,3.30
2018-12-24T05:13:51.171Z,3.33
2018-12-24T05:16:20.224Z,3.47
2018-12-24T05:18:49.471Z,2.90
2018-12-24T05:21:18.443Z,3.00
2018-12-24T05:23:47.451Z,2.73
2018-12-24T05:26:16.891Z,3.37
2018-12-24T05:28:45.851Z,3.20
2018-12-24T05:31:15.060Z,3.30
2018-12-24T05:33:43.974Z,3.30
2018-12-24T05:36:12.923Z,3.10
2018-12-24T05:38:41.901Z,3.17
2018-12-24T05:41:10.796Z,3.43
2018-12-24T05:43:39.763Z,3.80
2018-12-24T05:46:08.751Z,3.70
2018-12-24T05:48:37.971Z,3.57
2018-12-24T05:51:06.910Z,3.87
2018-12-24T05:53:37.965Z,3.97
2018-12-24T05:56:06.924Z,2.93
2018-12-24T05:58:36.101Z,3.70
2018-12-24T06:01:05.663Z,3.47
2018-12-24T06:03:34.611Z,4.03
2018-12-24T06:06:03.875Z,3.80
2018-12-24T06:08:32.786Z,3.77
2018-12-24T06:11:01.819Z,3.87
2018-12-24T06:13:30.740Z,4.07
2018-12-24T06:15:59.688Z,3.90
2018-12-24T06:18:31.323Z,3.30
2018-12-24T06:21:00.259Z,4.77
2018-12-24T06:23:29.201Z,4.73
2018-12-24T06:25:58.146Z,3.90
2018-12-24T06:28:27.163Z,4.00
2018-12-24T06:30:56.399Z,4.00
2018-12-24T06:33:25.325Z,3.50
2018-12-24T06:35:54.270Z,3.40
2018-12-24T06:38:23.195Z,2.90
2018-12-24T06:40:52.123Z,3.00
2018-12-24T06:43:21.346Z,3.13
2018-12-24T06:45:50.296Z,3.07
2018-12-24T06:48:19.230Z,3.03
2018-12-24T06:50:48.153Z,2.60
2018-12-24T06:53:17.679Z,2.50
2018-12-24T06:55:46.699Z,2.13
2018-12-24T06:58:15.707Z,2.77
2018-12-24T07:00:44.953Z,2.70
2018-12-24T07:03:13.864Z,2.53
2018-12-24T07:05:42.723Z,2.90
2018-12-24T07:08:11.979Z,3.10
2018-12-24T07:10:41.023Z,3.50
2018-12-24T07:13:09.973Z,3.20
2018-12-24T07:15:38.957Z,3.10
2018-12-24T07:18:07.975Z,2.87
2018-12-24T07:20:36.833Z,3.03
2018-12-24T07:23:05.795Z,3.03
2018-12-24T07:25:34.763Z,3.40
2018-12-24T07:28:03.727Z,2.60
2018-12-24T07:30:32.958Z,3.10
2018-12-24T07:33:01.952Z,2.90
2018-12-24T07:35:30.895Z,3.20
2018-12-24T07:37:59.857Z,2.73
2018-12-24T07:40:28.742Z,2.40
2018-12-24T07:42:58.109Z,1.57
2018-12-24T07:45:26.964Z,1.60
2018-12-24T07:47:55.895Z,1.47
2018-12-24T07:50:24.814Z,1.70
2018-12-24T07:52:54.107Z,1.67
2018-12-24T07:55:23.043Z,1.60
2018-12-24T07:57:51.978Z,1.80
2018-12-24T08:00:21.073Z,2.00
2018-12-24T08:02:49.943Z,1.60
2018-12-24T08:05:19.252Z,1.70
2018-12-24T08:07:48.184Z,1.60
2018-12-24T08:10:17.396Z,1.90
2018-12-24T08:12:46.329Z,1.97
2018-12-24T08:15:15.347Z,2.20
2018-12-24T08:17:44.277Z,2.00
2018-12-24T08:20:13.203Z,2.20
2018-12-24T08:22:42.150Z,2.50
2018-12-24T08:25:11.382Z,2.43
2018-12-24T08:27:40.403Z,2.20
2018-12-24T08:30:09.343Z,2.33
2018-12-24T08:32:38.318Z,2.33
2018-12-24T08:35:07.665Z,2.10
2018-12-24T08:37:37.159Z,2.33
2018-12-24T08:40:06.330Z,2.63
2018-12-24T08:42:35.302Z,2.90
2018-12-24T08:45:04.677Z,2.60
2018-12-24T08:47:33.582Z,2.50
2018-12-24T08:50:02.506Z,2.40
2018-12-24T08:52:31.635Z,2.40
2018-12-24T08:55:00.591Z,2.30
2018-12-24T08:57:30.078Z,3.17
2018-12-24T08:59:59.046Z,2.17
2018-12-24T09:02:27.965Z,2.40
2018-12-24T09:04:56.803Z,2.43
2018-12-24T09:07:25.739Z,2.70
2018-12-24T09:09:54.658Z,2.43
2018-12-24T09:12:23.651Z,2.57
2018-12-24T09:14:53.202Z,2.60
2018-12-24T09:17:22.150Z,2.30
2018-12-24T09:19:51.424Z,2.60
2018-12-24T09:22:20.643Z,2.40
2018-12-24T09:24:49.902Z,2.90
2018-12-24T09:27:18.887Z,2.63
2018-12-24T09:29:47.831Z,3.43
2018-12-24T09:32:16.884Z,3.23
2018-12-24T09:34:45.879Z,2.90
2018-12-24T09:37:15.078Z,2.97
2018-12-24T09:39:44.023Z,3.17
2018-12-24T09:42:12.939Z,3.47
2018-12-24T09:44:41.912Z,2.90
2018-12-24T09:47:11.482Z,2.50
2018-12-24T09:49:40.434Z,3.10
2018-12-24T09:52:09.351Z,3.10
2018-12-24T09:54:38.391Z,3.03
2018-12-24T09:57:07.337Z,3.20
2018-12-24T09:59:36.635Z,2.70
2018-12-24T10:02:05.663Z,2.73
2018-12-24T10:04:38.326Z,3.03
2018-12-24T10:07:30.105Z,3.50
2018-12-24T10:09:59.134Z,3.83
2018-12-24T10:12:28.134Z,2.90
2018-12-24T10:14:57.365Z,2.70
2018-12-24T10:17:26.363Z,2.70
2018-12-24T10:19:55.307Z,2.67
2018-12-24T10:22:24.268Z,2.57
2018-12-24T10:24:53.227Z,2.63
2018-12-24T10:27:22.225Z,2.60
2018-12-24T10:29:51.475Z,2.33
2018-12-24T10:32:20.399Z,2.70
2018-12-24T10:34:49.332Z,3.50
2018-12-24T10:37:19.120Z,3.53
2018-12-24T10:39:48.587Z,3.73
2018-12-24T10:42:17.596Z,3.40
2018-12-24T10:44:48.137Z,3.50
2018-12-24T10:47:17.010Z,5.47
2018-12-24T10:49:46.314Z,3.00
2018-12-24T10:52:15.241Z,3.20
2018-12-24T10:54:44.135Z,3.23
2018-12-24T10:57:13.487Z,2.97
2018-12-24T10:59:42.849Z,3.37
2018-12-24T11:02:11.767Z,4.03
2018-12-24T11:04:40.704Z,5.07
2018-12-24T11:07:09.885Z,4.03
2018-12-24T11:09:39.035Z,4.13
2018-12-24T11:12:09.033Z,4.30
2018-12-24T11:14:38.255Z,5.90
2018-12-24T11:17:07.179Z,5.93
2018-12-24T11:19:36.387Z,7.37
2018-12-24T11:22:05.306Z,4.53
2018-12-24T11:24:34.187Z,4.07
2018-12-24T11:27:03.119Z,3.40
2018-12-24T11:29:32.043Z,4.07
2018-12-24T11:32:01.469Z,4.07
2018-12-24T11:34:30.625Z,4.30
2018-12-24T11:36:59.801Z,2.40
2018-12-24T11:39:29.008Z,2.70
2018-12-24T11:41:57.972Z,3.13
2018-12-24T11:44:26.957Z,3.67
2018-12-24T11:46:55.800Z,2.70
2018-12-24T11:49:24.738Z,2.63
2018-12-24T11:51:53.589Z,2.60
2018-12-24T11:54:22.755Z,3.20
2018-12-24T11:56:51.700Z,4.10
2018-12-24T11:59:20.627Z,2.93
2018-12-24T12:01:49.553Z,2.30
2018-12-24T12:04:18.492Z,2.97
2018-12-24T12:06:47.403Z,2.73
2018-12-24T12:09:16.350Z,2.83
2018-12-24T12:11:45.567Z,2.80
2018-12-24T12:14:14.527Z,2.40
2018-12-24T12:16:43.758Z,2.53
2018-12-24T12:19:13.010Z,3.20
2018-12-24T12:21:41.923Z,3.63
2018-12-24T12:24:11.483Z,4.50
2018-12-24T12:26:40.421Z,3.97
2018-12-24T12:29:09.274Z,3.37
2018-12-24T12:31:38.482Z,2.43
2018-12-24T12:34:07.403Z,2.77
2018-12-24T12:36:36.342Z,2.47
2018-12-24T12:39:07.599Z,3.03
2018-12-24T12:41:36.823Z,2.80
2018-12-24T12:44:06.022Z,3.00
2018-12-24T12:46:35.030Z,2.77
2018-12-24T12:49:03.984Z,3.57
2018-12-24T12:51:35.167Z,2.97
2018-12-24T12:54:04.184Z,3.17
2018-12-24T12:56:33.127Z,2.73
2018-12-24T12:59:02.049Z,2.60
2018-12-24T13:01:30.915Z,4.20
2018-12-24T13:04:00.145Z,3.30
2018-12-24T13:06:29.081Z,3.90
2018-12-24T13:08:58.033Z,2.63
2018-12-24T13:11:27.063Z,2.63
2018-12-24T13:13:55.974Z,2.63
2018-12-24T13:16:25.170Z,2.50
2018-12-24T13:18:54.453Z,2.30
2018-12-24T13:21:23.395Z,2.90
2018-12-24T13:23:52.308Z,3.73
2018-12-24T13:26:21.227Z,3.10
2018-12-24T13:28:50.440Z,3.40
2018-12-24T13:31:19.421Z,2.87
2018-12-24T13:33:48.710Z,2.87
2018-12-24T13:36:17.711Z,2.77
2018-12-24T13:38:47.261Z,3.00
2018-12-24T13:41:16.230Z,3.17
2018-12-24T13:43:45.145Z,2.77
2018-12-24T13:46:15.347Z,3.10
2018-12-24T13:48:44.273Z,2.80
2018-12-24T13:51:13.270Z,2.70
2018-12-24T13:53:42.271Z,3.60
2018-12-24T13:56:11.478Z,5.17
2018-12-24T13:58:40.419Z,4.20
2018-12-24T14:01:09.373Z,7.50
2018-12-24T14:03:38.290Z,6.17
2018-12-24T14:06:07.291Z,10.63
2018-12-24T14:08:36.207Z,5.03
2018-12-24T14:11:05.145Z,4.20
2018-12-24T14:13:34.051Z,3.83
2018-12-24T14:16:03.282Z,7.90
2018-12-24T14:18:32.130Z,9.57
2018-12-24T14:21:01.418Z,3.57
2018-12-24T14:23:30.690Z,2.80
2018-12-24T14:25:59.987Z,3.10
2018-12-24T14:28:29.203Z,2.80
2018-12-24T14:30:58.143Z,3.30
2018-12-24T14:33:27.331Z,4.03
2018-12-24T14:35:56.423Z,3.97
2018-12-24T14:38:25.389Z,3.37
2018-12-24T14:40:54.264Z,3.40
2018-12-24T14:43:23.347Z,3.10
2018-12-24T14:45:52.310Z,3.30
2018-12-24T14:48:21.233Z,4.20
2018-12-24T14:50:50.179Z,3.10
2018-12-24T14:53:19.098Z,3.67
2018-12-24T14:55:48.088Z,3.20
2018-12-24T14:58:17.296Z,2.90
2018-12-24T15:00:46.239Z,2.77
2018-12-24T15:03:15.153Z,3.00
2018-12-24T15:05:44.006Z,2.93
2018-12-24T15:08:12.973Z,3.40
2018-12-24T15:10:42.757Z,2.90
2018-12-24T15:13:11.875Z,3.30
2018-12-24T15:15:40.870Z,2.73
2018-12-24T15:18:09.779Z,3.00
2018-12-24T15:20:38.715Z,3.20
2018-12-24T15:23:07.629Z,2.90
2018-12-24T15:25:36.467Z,2.93
2018-12-24T15:28:05.410Z,2.90
2018-12-24T15:30:34.475Z,3.57
2018-12-24T15:33:03.686Z,3.13
2018-12-24T15:35:32.602Z,3.40
2018-12-24T15:38:02.095Z,3.23
2018-12-24T15:40:31.106Z,3.07
2018-12-24T15:43:00.063Z,4.07
2018-12-24T15:45:30.317Z,6.27
2018-12-24T15:47:59.487Z,4.20
2018-12-24T15:50:28.395Z,4.90
2018-12-24T15:52:57.687Z,4.20
2018-12-24T15:55:26.915Z,4.50
2018-12-24T15:57:55.876Z,2.90
2018-12-24T16:00:24.954Z,6.27
2018-12-24T16:02:54.166Z,5.27
2018-12-24T16:05:25.563Z,7.03
2018-12-24T16:07:54.543Z,6.03
2018-12-24T16:10:23.485Z,20.33
2018-12-24T16:12:54.590Z,6.40
2018-12-24T16:15:23.817Z,3.93
2018-12-24T16:17:52.803Z,3.60
2018-12-24T16:20:21.718Z,3.90
2018-12-24T16:22:50.650Z,3.70
2018-12-24T16:25:19.966Z,3.13
2018-12-24T16:27:48.995Z,3.97
2018-12-24T16:30:17.962Z,5.07
2018-12-24T16:32:46.923Z,3.23
2018-12-24T16:35:15.859Z,3.03
2018-12-24T16:37:45.037Z,3.37
2018-12-24T16:40:14.232Z,3.10
2018-12-24T16:42:44.451Z,3.67
2018-12-24T16:45:13.378Z,4.00
2018-12-24T16:47:42.313Z,4.43
2018-12-24T16:50:11.563Z,4.20
2018-12-24T16:52:40.595Z,4.40
2018-12-24T16:55:09.822Z,3.90
2018-12-24T16:57:38.762Z,3.80
2018-12-24T17:00:07.880Z,3.73
2018-12-24T17:02:37.193Z,4.10
2018-12-24T17:05:06.207Z,4.13
2018-12-24T17:07:35.167Z,3.93
2018-12-24T17:10:04.263Z,5.07
2018-12-24T17:12:33.611Z,4.33
2018-12-24T17:15:02.559Z,3.90
2018-12-24T17:17:31.715Z,4.20
2018-12-24T17:20:00.963Z,4.53
2018-12-24T17:22:29.901Z,4.30
2018-12-24T17:24:58.834Z,9.70
2018-12-24T17:27:27.971Z,5.03
2018-12-24T17:29:56.919Z,7.10
2018-12-24T17:32:26.531Z,3.90
2018-12-24T17:34:55.503Z,3.63
2018-12-24T17:37:24.755Z,3.80
2018-12-24T17:39:53.996Z,4.40
2018-12-24T17:42:22.917Z,6.63
2018-12-24T17:44:51.855Z,5.53
2018-12-24T17:47:20.771Z,5.20
2018-12-24T17:49:49.790Z,4.23
2018-12-24T17:52:18.710Z,7.73
2018-12-24T17:54:47.958Z,9.03
2018-12-24T17:57:16.915Z,4.07
2018-12-24T17:59:45.845Z,4.90
2018-12-24T18:02:14.763Z,4.37
2018-12-24T18:04:44.006Z,6.10
2018-12-24T18:07:12.956Z,5.13
2018-12-24T18:09:41.963Z,7.63
2018-12-24T18:12:10.903Z,5.87
2018-12-24T18:14:39.891Z,5.07
2018-12-24T18:17:08.819Z,4.30
2018-12-24T18:19:38.031Z,5.40
2018-12-24T18:22:07.026Z,5.70
2018-12-24T18:24:35.970Z,4.13
2018-12-24T18:27:05.515Z,5.03
2018-12-24T18:29:34.563Z,4.53
2018-12-24T18:32:03.756Z,4.70
2018-12-24T18:34:32.745Z,5.30
2018-12-24T18:37:01.699Z,5.03
2018-12-24T18:39:30.631Z,4.93
2018-12-24T18:41:59.591Z,5.03
2018-12-24T18:44:28.556Z,6.40
2018-12-24T18:46:57.808Z,5.77
2018-12-24T18:49:26.763Z,5.97
2018-12-24T18:51:55.713Z,5.23
2018-12-24T18:54:24.644Z,5.40
2018-12-24T18:56:54.080Z,5.40
2018-12-24T18:59:23.338Z,6.53
2018-12-24T19:01:52.259Z,6.60
2018-12-24T19:04:21.203Z,5.50
2018-12-24T19:06:50.170Z,5.47
2018-12-24T19:09:19.344Z,5.27
2018-12-24T19:11:48.665Z,5.67
2018-12-24T19:14:17.543Z,5.83
2018-12-24T19:16:47.141Z,5.67
2018-12-24T19:19:16.087Z,10.17
2018-12-24T19:21:45.029Z,6.40
2018-12-24T19:24:14.521Z,7.23
2018-12-24T19:26:43.624Z,21.30
2018-12-24T19:29:12.825Z,17.27
2018-12-24T19:31:42.008Z,7.27
2018-12-24T19:34:11.331Z,14.60
2018-12-24T19:36:40.402Z,6.47
2018-12-24T19:39:09.285Z,6.60
2018-12-24T19:41:38.799Z,8.27
2018-12-24T19:44:08.092Z,6.33
2018-12-24T19:46:37.047Z,6.90
2018-12-24T19:49:06.264Z,6.60
2018-12-24T19:51:35.195Z,6.67
2018-12-24T19:54:04.270Z,9.23
2018-12-24T19:56:33.486Z,7.93
2018-12-24T19:59:03.164Z,6.27
2018-12-24T20:01:32.119Z,6.20
2018-12-24T20:04:01.455Z,9.50
2018-12-24T20:06:30.461Z,6.97
2018-12-24T20:08:59.419Z,7.00
2018-12-24T20:11:28.734Z,6.33
2018-12-24T20:13:58.241Z,7.47
2018-12-24T20:16:27.367Z,6.70
2018-12-24T20:18:56.495Z,9.70
2018-12-24T20:21:25.764Z,6.10
2018-12-24T20:23:54.999Z,6.33
2018-12-24T20:26:24.041Z,6.83
2018-12-24T20:28:53.177Z,6.90
2018-12-24T20:31:22.847Z,9.50
2018-12-24T20:33:52.118Z,9.93
2018-12-24T20:36:22.181Z,5.77
2018-12-24T20:38:51.192Z,5.97
2018-12-24T20:41:20.098Z,6.20
2018-12-24T20:43:49.322Z,6.43
2018-12-24T20:46:18.319Z,6.30
2018-12-24T20:48:47.345Z,6.80
2018-12-24T20:51:16.631Z,6.97
2018-12-24T20:53:45.970Z,5.63
2018-12-24T20:56:14.914Z,6.23
2018-12-24T20:58:44.181Z,6.20
2018-12-24T21:01:13.436Z,6.47
2018-12-24T21:03:42.627Z,6.60
2018-12-24T21:06:11.715Z,6.30
2018-12-24T21:08:40.584Z,6.30
2018-12-24T21:11:09.540Z,6.40
2018-12-24T21:13:38.788Z,6.93
2018-12-24T21:16:07.714Z,6.70
2018-12-24T21:18:38.635Z,6.60
2018-12-24T21:21:07.573Z,6.87
2018-12-24T21:23:36.843Z,6.37
2018-12-24T21:26:05.861Z,6.83
2018-12-24T21:28:34.782Z,7.10
2018-12-24T21:31:04.141Z,6.53
2018-12-24T21:33:33.141Z,6.20
2018-12-24T21:36:02.105Z,6.63
2018-12-24T21:38:31.310Z,6.70
2018-12-24T21:41:00.274Z,7.00
2018-12-24T21:43:29.277Z,6.47
2018-12-24T21:45:58.262Z,7.17
2018-12-24T21:48:27.426Z,7.10
2018-12-24T21:50:56.774Z,6.77
2018-12-24T21:53:25.697Z,7.13
2018-12-24T21:55:54.856Z,7.63
2018-12-24T21:58:24.075Z,6.90
2018-12-24T22:00:53.193Z,7.47
2018-12-24T22:03:22.671Z,7.20
2018-12-24T22:05:51.609Z,7.77
2018-12-24T22:08:20.546Z,7.67
2018-12-24T22:10:49.573Z,7.90
2018-12-24T22:13:18.508Z,7.63
2018-12-24T22:15:47.886Z,8.27
2018-12-24T22:18:17.091Z,8.10
2018-12-24T22:20:46.323Z,7.63
2018-12-24T22:23:15.622Z,7.53
2018-12-24T22:25:44.550Z,7.53
2018-12-24T22:28:13.527Z,8.77
2018-12-24T22:30:42.546Z,7.70
2018-12-24T22:33:11.711Z,7.77
2018-12-24T22:35:40.711Z,7.40
2018-12-24T22:38:09.647Z,7.80
2018-12-24T22:40:39.175Z,7.00
2018-12-24T22:43:08.372Z,7.57
2018-12-24T22:45:37.583Z,7.33
2018-12-24T22:48:06.527Z,7.23
2018-12-24T22:50:35.755Z,8.10
2018-12-24T22:53:04.687Z,7.43
2018-12-24T22:55:33.862Z,7.93
2018-12-24T22:58:03.010Z,7.33
2018-12-24T23:00:48.071Z,7.50
2018-12-24T23:03:17.396Z,7.23
2018-12-24T23:05:46.331Z,7.10
2018-12-24T23:08:15.415Z,7.40
2018-12-24T23:10:44.614Z,7.30
2018-12-24T23:13:13.627Z,7.47
2018-12-24T23:15:42.658Z,6.60
2018-12-24T23:18:11.622Z,7.97
2018-12-24T23:20:40.547Z,7.13
2018-12-24T23:23:10.018Z,7.57
2018-12-24T23:25:39.374Z,6.93
2018-12-24T23:28:08.341Z,7.40
2018-12-24T23:30:37.347Z,6.97
2018-12-24T23:33:06.298Z,7.40
2018-12-24T23:35:35.246Z,6.83
2018-12-24T23:38:04.467Z,6.73
2018-12-24T23:40:33.398Z,6.67
2018-12-24T23:43:02.348Z,7.83
2018-12-24T23:45:31.283Z,7.07
2018-12-24T23:48:00.507Z,7.13
2018-12-24T23:50:29.458Z,6.83
2018-12-24T23:52:58.390Z,7.20
2018-12-24T23:55:27.654Z,7.23
2018-12-24T23:57:56.900Z,7.70
